Bordeaux, Wyoming
Current Conditions -  °F | °C
As of 2:35 AM on Friday 24 Oct 2014 (Local Time) from KGUR Reporting Station
Clear Clear  
Wind Chill: 71°   Ceiling: Unl
Heat Index: 71°   Visibility: 10mi
Dew Point: 37°   Wind: 24mph
Humidity: 28%   Direction: 250°WSW
Pressure: 30.02"   Gusts: 33mph
Location:  42.0178°N, 105.098°W
Report Text: KGUR 240835Z AUTO 25021G29KT 10SM CLR 22/03 A3002 RMK AO2 T02180026
Loading
Personal Weather Stations






























Interactive Weather Map New forecast layout! Learn more

10-Day Weather Forecast

Advertisements
Track Severe Weather on mobile